createdAt,value
2018-10-01T00:02:09.365Z,12.00
2018-10-01T00:04:37.182Z,12.00
2018-10-01T00:07:05.620Z,11.90
2018-10-01T00:09:33.741Z,11.70
2018-10-01T00:12:01.502Z,11.70
2018-10-01T00:14:29.838Z,11.70
2018-10-01T00:16:57.569Z,11.70
2018-10-01T00:19:31.023Z,11.80
2018-10-01T00:22:04.478Z,11.80
2018-10-01T00:24:32.321Z,11.70
2018-10-01T00:26:59.894Z,11.70
2018-10-01T00:29:27.532Z,11.60
2018-10-01T00:31:55.384Z,11.60
2018-10-01T00:34:23.466Z,11.60
2018-10-01T00:36:51.232Z,11.60
2018-10-01T00:39:19.428Z,11.50
2018-10-01T00:41:47.077Z,11.50
2018-10-01T00:44:14.692Z,11.40
2018-10-01T00:46:42.600Z,11.40
2018-10-01T00:49:10.471Z,11.30
2018-10-01T00:51:39.706Z,11.30
2018-10-01T00:54:07.629Z,11.30
2018-10-01T00:56:35.320Z,11.20
2018-10-01T00:59:03.056Z,11.20
2018-10-01T01:01:30.845Z,11.10
2018-10-01T01:03:58.687Z,11.10
2018-10-01T01:06:26.672Z,11.20
2018-10-01T01:08:54.363Z,11.20
2018-10-01T01:11:22.071Z,11.10
2018-10-01T01:13:50.073Z,11.10
2018-10-01T01:16:19.004Z,11.10
2018-10-01T01:18:48.020Z,11.10
2018-10-01T01:21:15.737Z,11.10
2018-10-01T01:23:43.652Z,11.10
2018-10-01T01:26:11.660Z,11.00
2018-10-01T01:28:40.006Z,11.00
2018-10-01T01:31:08.174Z,11.00
2018-10-01T01:33:35.897Z,10.90
2018-10-01T01:36:04.145Z,10.90
2018-10-01T01:38:31.949Z,10.90
2018-10-01T01:40:59.652Z,10.90
2018-10-01T01:43:27.418Z,10.90
2018-10-01T01:45:55.841Z,10.90
2018-10-01T01:48:23.548Z,10.80
2018-10-01T01:50:51.240Z,10.80
2018-10-01T01:53:18.835Z,10.70
2018-10-01T01:55:46.459Z,10.60
2018-10-01T01:58:14.159Z,10.50
2018-10-01T02:00:41.846Z,10.40
2018-10-01T02:03:09.669Z,10.50
2018-10-01T02:05:37.298Z,10.40
2018-10-01T02:08:05.185Z,10.20
2018-10-01T02:10:33.586Z,10.10
2018-10-01T02:13:01.247Z,10.10
2018-10-01T02:15:28.907Z,10.00
2018-10-01T02:17:56.855Z,10.00
2018-10-01T02:20:24.513Z,9.80
2018-10-01T02:22:52.204Z,9.90
2018-10-01T02:25:19.922Z,9.90
2018-10-01T02:27:47.624Z,9.80
2018-10-01T02:30:16.171Z,9.70
2018-10-01T02:32:43.990Z,9.70
2018-10-01T02:35:11.766Z,9.90
2018-10-01T02:37:40.285Z,9.90
2018-10-01T02:40:08.174Z,9.80
2018-10-01T02:42:35.819Z,9.70
2018-10-01T02:45:04.413Z,9.80
2018-10-01T02:47:32.150Z,9.80
2018-10-01T02:49:59.760Z,9.80
2018-10-01T02:52:33.065Z,9.80
2018-10-01T02:55:00.822Z,9.90
2018-10-01T02:57:28.737Z,10.00
2018-10-01T02:59:56.354Z,10.10
2018-10-01T03:02:24.158Z,10.10
2018-10-01T03:04:51.853Z,10.10
2018-10-01T03:07:19.637Z,10.20
2018-10-01T03:09:47.275Z,10.10
2018-10-01T03:12:15.232Z,10.00
2018-10-01T03:14:43.005Z,10.10
2018-10-01T03:17:10.704Z,10.10
2018-10-01T03:19:38.465Z,10.20
2018-10-01T03:22:06.202Z,10.20
2018-10-01T03:24:33.873Z,10.20
2018-10-01T03:27:01.939Z,10.20
2018-10-01T03:29:29.700Z,10.10
2018-10-01T03:31:57.559Z,10.10
2018-10-01T03:34:25.324Z,10.20
2018-10-01T03:36:53.023Z,10.20
2018-10-01T03:39:20.714Z,10.20
2018-10-01T03:41:48.346Z,10.20
2018-10-01T03:44:16.312Z,10.20
2018-10-01T03:46:44.589Z,10.20
2018-10-01T03:49:12.645Z,10.20
2018-10-01T03:51:40.269Z,10.20
2018-10-01T03:54:08.370Z,10.20
2018-10-01T03:56:36.159Z,10.20
2018-10-01T03:59:04.100Z,10.10
2018-10-01T04:01:33.094Z,10.00
2018-10-01T04:04:01.566Z,10.00
2018-10-01T04:06:29.466Z,10.00
2018-10-01T04:08:57.876Z,9.90
2018-10-01T04:11:25.793Z,9.90
2018-10-01T04:13:53.888Z,10.10
2018-10-01T04:16:22.469Z,10.10
2018-10-01T04:18:50.213Z,10.20
2018-10-01T04:21:18.237Z,10.30
2018-10-01T04:23:45.948Z,10.30
2018-10-01T04:26:14.039Z,10.30
2018-10-01T04:28:41.778Z,10.30
2018-10-01T04:31:09.473Z,10.30
2018-10-01T04:33:37.161Z,10.40
2018-10-01T04:36:04.770Z,10.30
2018-10-01T04:38:32.439Z,10.20
2018-10-01T04:41:00.072Z,10.30
2018-10-01T04:43:27.774Z,10.30
2018-10-01T04:45:55.415Z,10.30
2018-10-01T04:48:23.021Z,10.30
2018-10-01T04:50:51.357Z,10.30
2018-10-01T04:53:19.001Z,10.30
2018-10-01T04:55:46.644Z,10.30
2018-10-01T04:58:14.332Z,10.20
2018-10-01T05:00:42.114Z,10.20
2018-10-01T05:03:09.719Z,10.20
2018-10-01T05:05:37.435Z,10.20
2018-10-01T05:08:05.683Z,10.20
2018-10-01T05:10:33.370Z,10.20
2018-10-01T05:13:01.004Z,10.20
2018-10-01T05:15:29.378Z,10.10
2018-10-01T05:17:56.957Z,10.10
2018-10-01T05:20:25.273Z,10.10
2018-10-01T05:22:52.985Z,10.10
2018-10-01T05:25:20.647Z,10.10
2018-10-01T05:27:48.281Z,10.00
2018-10-01T05:30:16.013Z,10.00
2018-10-01T05:32:43.651Z,10.00
2018-10-01T05:35:11.337Z,10.00
2018-10-01T05:37:39.148Z,10.20
2018-10-01T05:40:06.918Z,10.20
2018-10-01T05:42:34.632Z,10.20
2018-10-01T05:45:05.259Z,10.10
2018-10-01T05:47:33.198Z,10.10
2018-10-01T05:50:00.878Z,10.20
2018-10-01T05:52:28.664Z,10.20
2018-10-01T05:54:56.541Z,10.20
2018-10-01T05:57:24.307Z,10.20
2018-10-01T05:59:52.582Z,10.20
2018-10-01T06:02:20.491Z,10.20
2018-10-01T06:04:48.308Z,10.40
2018-10-01T06:07:16.133Z,10.40
2018-10-01T06:09:43.936Z,10.50
2018-10-01T06:12:11.647Z,10.60
2018-10-01T06:14:39.367Z,10.60
2018-10-01T06:17:07.282Z,10.60
2018-10-01T06:19:35.167Z,10.60
2018-10-01T06:22:03.006Z,10.70
2018-10-01T06:24:30.741Z,10.70
2018-10-01T06:26:58.993Z,10.80
2018-10-01T06:29:26.603Z,10.80
2018-10-01T06:31:54.302Z,10.80
2018-10-01T06:34:22.100Z,10.90
2018-10-01T06:36:51.042Z,10.90
2018-10-01T06:39:18.758Z,11.00
2018-10-01T06:41:46.435Z,11.00
2018-10-01T06:44:14.044Z,11.00
2018-10-01T06:46:41.803Z,11.00
2018-10-01T06:49:09.667Z,11.00
2018-10-01T06:51:37.355Z,11.10
2018-10-01T06:54:04.982Z,11.20
2018-10-01T06:56:32.684Z,11.10
2018-10-01T06:59:01.149Z,11.10
2018-10-01T07:01:29.418Z,11.20
2018-10-01T07:03:57.127Z,11.20
2018-10-01T07:06:24.858Z,11.30
2018-10-01T07:08:52.628Z,11.40
2018-10-01T07:11:20.399Z,11.50
2018-10-01T07:13:48.159Z,11.60
2018-10-01T07:16:16.657Z,11.50
2018-10-01T07:18:44.266Z,11.50
2018-10-01T07:21:11.904Z,11.50
2018-10-01T07:23:39.569Z,11.50
2018-10-01T07:26:07.381Z,11.50
2018-10-01T07:28:34.999Z,11.60
2018-10-01T07:31:02.670Z,11.60
2018-10-01T07:33:30.483Z,11.60
2018-10-01T07:36:02.291Z,11.60
2018-10-01T07:38:30.214Z,11.70
2018-10-01T07:40:57.908Z,11.80
2018-10-01T07:43:26.192Z,11.90
2018-10-01T07:45:53.915Z,11.80
2018-10-01T07:48:21.694Z,11.80
2018-10-01T07:50:49.496Z,11.90
2018-10-01T07:53:17.327Z,11.90
2018-10-01T07:55:45.150Z,12.10
2018-10-01T07:58:13.069Z,12.00
2018-10-01T08:00:40.844Z,11.90
2018-10-01T08:03:08.547Z,11.90
2018-10-01T08:05:36.251Z,11.90
2018-10-01T08:08:03.910Z,11.90
2018-10-01T08:10:31.814Z,11.80
2018-10-01T08:12:59.474Z,11.60
2018-10-01T08:15:27.108Z,11.60
2018-10-01T08:17:55.006Z,11.80
2018-10-01T08:20:22.993Z,11.80
2018-10-01T08:22:50.709Z,11.80
2018-10-01T08:25:18.499Z,11.90
2018-10-01T08:27:46.190Z,12.00
2018-10-01T08:30:13.911Z,11.80
2018-10-01T08:32:41.562Z,11.90
2018-10-01T08:35:09.364Z,12.10
2018-10-01T08:37:37.169Z,12.10
2018-10-01T08:40:05.776Z,12.00
2018-10-01T08:42:35.285Z,12.00
2018-10-01T08:45:03.079Z,12.20
2018-10-01T08:47:30.764Z,12.30
2018-10-01T08:50:08.862Z,12.30
2018-10-01T08:52:45.804Z,12.20
2018-10-01T08:55:13.536Z,12.40
2018-10-01T08:57:41.229Z,12.50
2018-10-01T09:00:08.943Z,12.50
2018-10-01T09:02:36.820Z,12.30
2018-10-01T09:05:04.740Z,12.50
2018-10-01T09:07:32.417Z,12.90
2018-10-01T09:10:01.555Z,13.20
2018-10-01T09:12:29.435Z,13.40
2018-10-01T09:14:57.163Z,13.60
2018-10-01T09:17:24.828Z,13.90
2018-10-01T09:19:53.231Z,14.20
2018-10-01T09:22:20.951Z,14.00
2018-10-01T09:24:48.639Z,14.30
2018-10-01T09:27:16.386Z,14.50
2018-10-01T09:29:44.283Z,13.90
2018-10-01T09:32:12.045Z,13.30
2018-10-01T09:34:39.862Z,13.50
2018-10-01T09:37:07.722Z,13.60
2018-10-01T09:39:35.591Z,13.80
2018-10-01T09:42:03.357Z,14.10
2018-10-01T09:44:31.000Z,14.20
2018-10-01T09:46:58.722Z,14.20
2018-10-01T09:49:26.592Z,14.30
2018-10-01T09:51:54.356Z,14.30
2018-10-01T09:54:22.032Z,14.40
2018-10-01T09:56:49.741Z,14.40
2018-10-01T09:59:17.547Z,14.40
2018-10-01T10:01:45.333Z,14.00
2018-10-01T10:04:13.042Z,13.80
2018-10-01T10:06:40.835Z,13.60
2018-10-01T10:09:09.810Z,13.50
2018-10-01T10:11:37.987Z,13.80
2018-10-01T10:14:05.709Z,14.00
2018-10-01T10:16:33.400Z,14.20
2018-10-01T10:19:01.189Z,14.20
2018-10-01T10:21:28.941Z,14.20
2018-10-01T10:23:56.647Z,14.00
2018-10-01T10:26:24.613Z,14.00
2018-10-01T10:28:52.314Z,14.10
2018-10-01T10:31:20.601Z,14.30
2018-10-01T10:33:48.426Z,14.00
2018-10-01T10:36:16.045Z,14.10
2018-10-01T10:38:44.027Z,14.40
2018-10-01T10:41:11.993Z,14.70
2018-10-01T10:43:39.727Z,14.80
2018-10-01T10:46:07.485Z,14.80
2018-10-01T10:48:35.212Z,15.00
2018-10-01T10:51:03.065Z,15.10
2018-10-01T10:53:30.884Z,15.30
2018-10-01T10:55:58.558Z,15.60
2018-10-01T10:58:26.334Z,16.00
2018-10-01T11:00:54.266Z,15.70
2018-10-01T11:03:22.722Z,15.60
2018-10-01T11:05:50.535Z,15.50
2018-10-01T11:08:18.941Z,15.20
2018-10-01T11:10:47.031Z,15.10
2018-10-01T11:13:15.370Z,15.10
2018-10-01T11:15:43.004Z,14.90
2018-10-01T11:18:11.521Z,14.90
2018-10-01T11:20:39.577Z,14.90
2018-10-01T11:23:07.545Z,15.10
2018-10-01T11:25:35.357Z,15.20
2018-10-01T11:28:03.267Z,15.00
2018-10-01T11:30:31.306Z,15.10
2018-10-01T11:32:58.987Z,15.00
2018-10-01T11:35:27.342Z,14.80
2018-10-01T11:37:54.919Z,14.70
2018-10-01T11:40:22.830Z,14.80
2018-10-01T11:42:50.596Z,15.00
2018-10-01T11:45:18.452Z,15.10
2018-10-01T11:47:46.030Z,15.10
2018-10-01T11:50:13.982Z,14.80
2018-10-01T11:52:42.076Z,14.60
2018-10-01T11:55:10.436Z,14.70
2018-10-01T11:57:38.611Z,14.80
2018-10-01T12:00:08.367Z,14.90
2018-10-01T12:02:36.135Z,14.90
2018-10-01T12:05:04.820Z,15.00
